createdAt,value
2018-06-11T00:01:55.737Z,21.03
2018-06-11T00:04:25.087Z,20.81
2018-06-11T00:06:54.359Z,20.76
2018-06-11T00:09:23.652Z,20.80
2018-06-11T00:11:53.198Z,20.86
2018-06-11T00:14:22.462Z,20.94
2018-06-11T00:16:51.775Z,20.76
2018-06-11T00:19:21.121Z,20.63
2018-06-11T00:21:50.400Z,20.47
2018-06-11T00:24:19.756Z,20.46
2018-06-11T00:26:49.088Z,20.42
2018-06-11T00:29:18.364Z,20.41
2018-06-11T00:31:47.694Z,20.17
2018-06-11T00:34:17.353Z,20.12
2018-06-11T00:36:46.678Z,20.19
2018-06-11T00:39:15.958Z,20.30
2018-06-11T00:41:45.326Z,20.18
2018-06-11T00:44:14.607Z,20.09
2018-06-11T00:46:43.873Z,20.04
2018-06-11T00:49:13.227Z,20.08
2018-06-11T00:51:42.479Z,19.94
2018-06-11T00:54:11.715Z,19.84
2018-06-11T00:56:41.079Z,19.80
2018-06-11T00:59:10.361Z,19.92
2018-06-11T01:01:39.638Z,20.06
2018-06-11T01:04:08.941Z,19.90
2018-06-11T01:06:38.185Z,19.87
2018-06-11T01:09:08.241Z,20.06
2018-06-11T01:11:37.552Z,20.06
2018-06-11T01:14:06.812Z,19.96
2018-06-11T01:16:36.647Z,20.13
2018-06-11T01:19:06.304Z,20.16
2018-06-11T01:21:35.572Z,20.18
2018-06-11T01:24:04.831Z,20.15
2018-06-11T01:26:34.147Z,19.97
2018-06-11T01:29:03.408Z,20.01
2018-06-11T01:31:32.700Z,19.97
2018-06-11T01:34:02.028Z,19.96
2018-06-11T01:36:31.289Z,19.79
2018-06-11T01:39:00.571Z,19.63
2018-06-11T01:41:30.074Z,19.59
2018-06-11T01:43:59.348Z,19.47
2018-06-11T01:46:28.630Z,19.57
2018-06-11T01:48:57.945Z,19.47
2018-06-11T01:51:27.235Z,19.54
2018-06-11T01:53:56.508Z,19.51
2018-06-11T01:56:25.805Z,19.49
2018-06-11T01:58:55.055Z,19.43
2018-06-11T02:01:24.328Z,19.32
2018-06-11T02:03:53.715Z,19.21
2018-06-11T02:06:24.537Z,18.97
2018-06-11T02:08:53.829Z,19.04
2018-06-11T02:11:23.172Z,18.97
2018-06-11T02:13:52.469Z,18.96
2018-06-11T02:16:22.389Z,18.97
2018-06-11T02:18:54.676Z,18.97
2018-06-11T02:21:23.981Z,18.94
2018-06-11T02:23:53.239Z,18.94
2018-06-11T02:26:22.816Z,19.13
2018-06-11T02:28:52.107Z,19.11
2018-06-11T02:31:21.383Z,19.02
2018-06-11T02:33:50.719Z,18.99
2018-06-11T02:36:20.045Z,19.05
2018-06-11T02:38:49.325Z,19.01
2018-06-11T02:41:18.626Z,19.14
2018-06-11T02:46:16.179Z,18.96
2018-06-11T02:48:45.760Z,18.73
2018-06-11T02:51:15.063Z,18.83
2018-06-11T02:53:44.354Z,19.07
2018-06-11T02:56:13.701Z,18.91
2018-06-11T02:58:42.977Z,19.09
2018-06-11T03:01:12.001Z,19.22
2018-06-11T03:03:41.374Z,19.40
2018-06-11T03:06:10.657Z,19.33
2018-06-11T03:08:39.922Z,19.06
2018-06-11T03:11:09.559Z,19.04
2018-06-11T03:13:38.835Z,19.20
2018-06-11T03:16:08.101Z,19.18
2018-06-11T03:18:37.416Z,19.21
2018-06-11T03:21:06.703Z,19.30
2018-06-11T03:23:36.053Z,19.39
2018-06-11T03:26:05.378Z,19.24
2018-06-11T03:28:34.599Z,19.26
2018-06-11T03:31:03.850Z,19.38
2018-06-11T03:33:33.479Z,19.29
2018-06-11T03:36:02.949Z,19.27
2018-06-11T03:38:32.213Z,19.22
2018-06-11T03:41:01.475Z,19.32
2018-06-11T03:43:30.749Z,19.49
2018-06-11T03:46:00.088Z,19.50
2018-06-11T03:48:29.371Z,19.39
2018-06-11T03:50:58.664Z,19.29
2018-06-11T03:53:27.973Z,19.44
2018-06-11T03:55:57.804Z,19.43
2018-06-11T03:58:27.126Z,19.33
2018-06-11T04:00:56.471Z,19.48
2018-06-11T04:03:25.897Z,19.24
2018-06-11T04:05:55.162Z,19.33
2018-06-11T04:08:24.504Z,19.27
2018-06-11T04:10:53.893Z,19.22
2018-06-11T04:13:23.138Z,19.37
2018-06-11T04:15:52.401Z,19.45
2018-06-11T04:18:22.137Z,19.59
2018-06-11T04:20:51.464Z,19.60
2018-06-11T04:23:20.772Z,19.63
2018-06-11T04:25:50.094Z,19.74
2018-06-11T04:28:19.415Z,19.91
2018-06-11T04:30:48.679Z,19.71
2018-06-11T04:33:18.016Z,19.80
2018-06-11T04:35:47.336Z,19.80
2018-06-11T04:38:16.624Z,19.65
2018-06-11T04:40:46.139Z,19.59
2018-06-11T04:43:15.416Z,19.66
2018-06-11T04:45:44.771Z,19.53
2018-06-11T04:48:14.120Z,19.73
2018-06-11T04:50:43.437Z,19.95
2018-06-11T04:53:12.814Z,20.09
2018-06-11T04:55:42.139Z,20.02
2018-06-11T04:58:11.420Z,19.98
2018-06-11T05:00:40.736Z,20.04
2018-06-11T05:03:10.225Z,20.08
2018-06-11T05:05:39.523Z,20.07
2018-06-11T05:08:08.849Z,20.16
2018-06-11T05:10:38.185Z,19.70
2018-06-11T05:13:07.546Z,19.84
2018-06-11T05:15:36.961Z,20.00
2018-06-11T05:18:06.342Z,20.19
2018-06-11T05:20:35.695Z,20.35
2018-06-11T05:23:04.986Z,20.17
2018-06-11T05:25:34.455Z,20.17
2018-06-11T05:28:03.795Z,20.10
2018-06-11T05:30:33.080Z,20.08
2018-06-11T05:33:02.709Z,20.31
2018-06-11T05:35:31.999Z,20.19
2018-06-11T05:38:01.335Z,20.07
2018-06-11T05:40:30.649Z,20.07
2018-06-11T05:42:59.934Z,20.22
2018-06-11T05:45:29.234Z,20.33
2018-06-11T05:47:58.710Z,20.29
2018-06-11T05:50:28.122Z,20.58
2018-06-11T05:52:57.418Z,20.65
2018-06-11T05:55:26.812Z,20.68
2018-06-11T05:57:56.339Z,20.87
2018-06-11T06:00:25.931Z,20.71
2018-06-11T06:02:55.301Z,20.50
2018-06-11T06:05:24.621Z,20.28
2018-06-11T06:07:53.994Z,20.67
2018-06-11T06:10:23.751Z,20.68
2018-06-11T06:12:53.080Z,20.91
2018-06-11T06:15:22.383Z,20.93
2018-06-11T06:17:51.750Z,21.04
2018-06-11T06:20:21.047Z,21.41
2018-06-11T06:22:50.346Z,21.36
2018-06-11T06:25:19.805Z,21.43
2018-06-11T06:27:49.162Z,21.44
2018-06-11T06:30:18.547Z,21.77
2018-06-11T06:32:48.299Z,22.10
2018-06-11T06:35:17.811Z,22.07
2018-06-11T06:37:47.132Z,22.14
2018-06-11T06:40:16.579Z,22.46
2018-06-11T06:42:45.867Z,22.36
2018-06-11T06:45:15.204Z,22.29
2018-06-11T06:47:44.587Z,22.46
2018-06-11T06:50:13.879Z,22.46
2018-06-11T06:52:43.160Z,22.35
2018-06-11T06:55:12.850Z,21.82
2018-06-11T06:57:42.191Z,21.93
2018-06-11T07:00:11.573Z,21.92
2018-06-11T07:02:40.912Z,22.21
2018-06-11T07:05:10.276Z,22.40
2018-06-11T07:07:39.602Z,22.63
2018-06-11T07:10:08.918Z,22.32
2018-06-11T07:12:38.167Z,22.87
2018-06-11T07:15:07.497Z,22.81
2018-06-11T07:17:37.204Z,22.98
2018-06-11T07:20:06.564Z,23.25
2018-06-11T07:22:35.808Z,23.41
2018-06-11T07:25:05.101Z,23.86
2018-06-11T07:27:34.390Z,23.85
2018-06-11T07:30:03.674Z,23.94
2018-06-11T07:32:33.767Z,23.98
2018-06-11T07:35:03.051Z,23.81
2018-06-11T07:37:32.322Z,23.46
2018-06-11T07:40:01.714Z,23.97
2018-06-11T07:42:31.222Z,24.18
2018-06-11T07:45:00.475Z,24.49
2018-06-11T07:47:29.808Z,24.46
2018-06-11T07:49:59.139Z,24.54
2018-06-11T07:52:28.474Z,24.92
2018-06-11T07:54:57.789Z,24.68
2018-06-11T07:57:27.153Z,24.92
2018-06-11T07:59:56.599Z,24.70
2018-06-11T08:02:26.224Z,24.46
2018-06-11T08:04:55.626Z,24.67
2018-06-11T08:07:24.743Z,25.12
2018-06-11T08:09:54.168Z,25.07
2018-06-11T08:12:23.450Z,24.95
2018-06-11T08:14:52.766Z,24.71
2018-06-11T08:17:22.127Z,25.07
2018-06-11T08:19:51.529Z,25.02
2018-06-11T08:22:20.823Z,24.95
2018-06-11T08:24:50.543Z,24.65
2018-06-11T08:27:19.869Z,24.83
2018-06-11T08:29:49.140Z,25.03
2018-06-11T08:32:18.436Z,25.06
2018-06-11T08:34:47.808Z,24.86
2018-06-11T08:37:17.107Z,24.98
2018-06-11T08:39:46.398Z,24.93
2018-06-11T08:42:15.743Z,25.18
2018-06-11T08:44:45.039Z,25.55
2018-06-11T08:47:14.657Z,26.01
2018-06-11T08:49:43.970Z,26.52
2018-06-11T08:52:13.290Z,26.89
2018-06-11T08:54:42.596Z,26.74
2018-06-11T08:57:11.859Z,26.44
2018-06-11T08:59:41.159Z,26.38
2018-06-11T09:02:10.595Z,26.33
2018-06-11T09:04:39.901Z,26.11
2018-06-11T09:07:09.378Z,26.16
2018-06-11T09:09:39.200Z,26.29
2018-06-11T09:12:08.537Z,26.79
2018-06-11T09:14:37.871Z,26.26
2018-06-11T09:17:07.232Z,26.76
2018-06-11T09:19:36.573Z,27.19
2018-06-11T09:22:05.947Z,27.06
2018-06-11T09:24:35.339Z,27.13
2018-06-11T09:27:04.665Z,27.29
2018-06-11T09:29:37.288Z,27.05
2018-06-11T09:32:06.627Z,27.09
2018-06-11T09:34:35.988Z,27.09
2018-06-11T09:37:05.344Z,27.22
2018-06-11T09:39:34.640Z,26.86
2018-06-11T09:42:03.947Z,26.65
2018-06-11T09:44:33.271Z,26.90
2018-06-11T09:47:02.569Z,27.42
2018-06-11T09:49:31.851Z,27.49
2018-06-11T09:52:01.295Z,27.25
2018-06-11T09:54:30.596Z,27.48
2018-06-11T09:57:00.079Z,27.90
2018-06-11T09:59:29.362Z,28.12
2018-06-11T10:01:58.700Z,28.21
2018-06-11T10:04:27.984Z,27.83
2018-06-11T10:06:57.314Z,27.74
2018-06-11T10:09:26.598Z,27.36
2018-06-11T10:11:55.997Z,27.64
2018-06-11T10:14:25.882Z,28.28
2018-06-11T10:16:55.181Z,28.60
2018-06-11T10:19:24.515Z,28.72
2018-06-11T10:21:54.047Z,28.50
2018-06-11T10:24:23.318Z,28.81
2018-06-11T10:26:52.595Z,28.94
2018-06-11T10:29:21.966Z,29.12
2018-06-11T10:31:51.355Z,29.10
2018-06-11T10:34:20.891Z,29.22
2018-06-11T10:36:50.317Z,28.93
2018-06-11T10:39:19.588Z,29.01
2018-06-11T10:41:48.935Z,29.02
2018-06-11T10:44:18.344Z,28.45
2018-06-11T10:46:47.703Z,28.39
2018-06-11T10:49:17.095Z,28.89
2018-06-11T10:51:46.445Z,29.08
2018-06-11T10:54:15.931Z,29.18
2018-06-11T10:56:45.238Z,29.39
2018-06-11T10:59:14.693Z,29.52
2018-06-11T11:01:44.011Z,29.63
2018-06-11T11:04:13.337Z,29.39
2018-06-11T11:06:42.624Z,29.01
2018-06-11T11:09:12.208Z,29.08
2018-06-11T11:11:41.512Z,29.43
2018-06-11T11:14:10.862Z,29.38
2018-06-11T11:16:40.002Z,29.46
2018-06-11T11:19:09.532Z,29.17
2018-06-11T11:21:39.029Z,29.54
2018-06-11T11:24:08.350Z,29.74
2018-06-11T11:26:37.635Z,30.24
2018-06-11T11:29:06.862Z,30.31
2018-06-11T11:31:36.160Z,30.21
2018-06-11T11:34:05.542Z,30.49
2018-06-11T11:36:34.877Z,30.87
2018-06-11T11:39:06.287Z,30.54
2018-06-11T11:41:36.229Z,30.23
2018-06-11T11:44:05.579Z,30.37
2018-06-11T11:46:34.875Z,30.68
2018-06-11T11:49:04.268Z,30.73
2018-06-11T11:51:33.547Z,30.42
2018-06-11T11:54:02.936Z,30.25
2018-06-11T11:56:32.368Z,30.59
2018-06-11T11:59:01.757Z,30.57
2018-06-11T12:01:31.050Z,30.45
2018-06-11T12:04:00.714Z,30.15
2018-06-11T12:06:29.968Z,30.13
2018-06-11T12:08:59.266Z,30.09
2018-06-11T12:11:28.674Z,30.07
2018-06-11T12:13:57.996Z,30.09
2018-06-11T12:16:27.338Z,30.21
2018-06-11T12:18:56.741Z,29.96
2018-06-11T12:21:26.073Z,30.23
2018-06-11T12:23:55.410Z,29.88
2018-06-11T12:26:25.037Z,29.98
2018-06-11T12:28:54.365Z,29.62
2018-06-11T12:31:23.955Z,29.19
2018-06-11T12:33:53.346Z,29.06
2018-06-11T12:36:22.708Z,29.35
2018-06-11T12:38:52.092Z,29.88
2018-06-11T12:41:21.398Z,30.33
2018-06-11T12:43:50.660Z,30.41
2018-06-11T12:46:19.924Z,30.45
2018-06-11T12:48:49.455Z,30.70
2018-06-11T12:51:18.767Z,30.61
2018-06-11T12:53:48.664Z,29.80
2018-06-11T12:56:18.079Z,29.55
2018-06-11T12:58:47.486Z,29.42
2018-06-11T13:01:16.760Z,29.41
2018-06-11T13:03:46.085Z,29.14
2018-06-11T13:06:15.371Z,29.08
2018-06-11T13:08:44.767Z,29.20
2018-06-11T13:11:14.297Z,28.89
2018-06-11T13:13:43.559Z,29.12
2018-06-11T13:16:12.884Z,29.57
2018-06-11T13:18:42.236Z,28.99
2018-06-11T13:21:11.539Z,28.72
2018-06-11T13:23:40.776Z,29.25
2018-06-11T13:26:10.079Z,29.10
2018-06-11T13:28:39.362Z,29.28
2018-06-11T13:31:08.656Z,29.26
2018-06-11T13:33:38.461Z,29.24
2018-06-11T13:36:07.802Z,29.20
2018-06-11T13:38:37.063Z,29.26
2018-06-11T13:41:06.400Z,28.94
2018-06-11T13:43:35.675Z,28.91
2018-06-11T13:46:04.926Z,29.01
2018-06-11T13:48:34.252Z,28.84
2018-06-11T13:51:03.814Z,28.60
2018-06-11T13:53:33.093Z,28.60
2018-06-11T13:56:02.643Z,28.36
2018-06-11T13:58:31.932Z,28.52
2018-06-11T14:01:01.270Z,28.14
2018-06-11T14:03:30.650Z,27.62
2018-06-11T14:06:00.040Z,27.73
2018-06-11T14:08:29.315Z,27.58
2018-06-11T14:10:58.644Z,27.18
2018-06-11T14:13:27.887Z,27.46
2018-06-11T14:15:57.175Z,27.67
2018-06-11T14:18:26.852Z,27.65
2018-06-11T14:20:56.150Z,27.64
2018-06-11T14:23:25.387Z,27.46
2018-06-11T14:25:54.699Z,27.69
2018-06-11T14:28:23.987Z,27.68
2018-06-11T14:30:53.349Z,27.94
2018-06-11T14:33:22.724Z,27.88
2018-06-11T14:35:51.975Z,27.79
2018-06-11T14:38:21.264Z,27.82
2018-06-11T14:40:50.980Z,27.62
2018-06-11T14:43:20.414Z,27.65
2018-06-11T14:45:49.672Z,27.62
2018-06-11T14:48:19.037Z,27.92
2018-06-11T14:50:48.324Z,28.02
2018-06-11T14:53:17.734Z,27.73
2018-06-11T14:55:47.054Z,27.68
2018-06-11T14:58:16.574Z,27.40
2018-06-11T15:00:45.919Z,27.31
2018-06-11T15:03:15.292Z,27.53
2018-06-11T15:05:44.626Z,27.45
2018-06-11T15:08:14.007Z,27.28
2018-06-11T15:10:43.351Z,27.02
2018-06-11T15:13:12.623Z,27.10
2018-06-11T15:15:41.995Z,27.43
2018-06-11T15:18:11.289Z,27.26
2018-06-11T15:20:40.566Z,27.07
2018-06-11T15:23:09.833Z,26.93
2018-06-11T15:25:39.367Z,26.70
2018-06-11T15:28:08.790Z,26.81
2018-06-11T15:30:38.103Z,26.99
2018-06-11T15:33:07.475Z,27.07
2018-06-11T15:35:36.829Z,26.82
2018-06-11T15:38:06.197Z,26.83
2018-06-11T15:40:35.590Z,26.94
2018-06-11T15:43:05.332Z,27.03
2018-06-11T15:45:35.154Z,27.19
2018-06-11T15:48:04.609Z,26.89
2018-06-11T15:50:33.972Z,26.92
2018-06-11T15:53:03.261Z,26.90
2018-06-11T15:55:32.687Z,26.80
2018-06-11T15:58:02.093Z,26.71
2018-06-11T16:00:31.435Z,26.39
2018-06-11T16:03:00.698Z,26.44
2018-06-11T16:05:30.006Z,26.27
2018-06-11T16:07:59.260Z,26.17
2018-06-11T16:10:28.715Z,26.38
2018-06-11T16:12:58.050Z,26.08
2018-06-11T16:15:27.346Z,26.22
2018-06-11T16:17:56.771Z,26.13
2018-06-11T16:20:26.112Z,26.22
2018-06-11T16:22:55.439Z,26.36
2018-06-11T16:25:24.855Z,26.21
2018-06-11T16:27:54.282Z,26.44
2018-06-11T16:30:23.828Z,26.42
2018-06-11T16:32:53.643Z,26.30
2018-06-11T16:35:23.063Z,26.21
2018-06-11T16:37:52.397Z,25.95
2018-06-11T16:40:21.698Z,26.07
2018-06-11T16:42:51.063Z,25.91
2018-06-11T16:45:20.379Z,26.04
2018-06-11T16:47:49.763Z,25.90
2018-06-11T16:50:18.956Z,25.89
2018-06-11T16:52:48.227Z,26.00
2018-06-11T16:55:17.802Z,25.69
2018-06-11T16:57:47.130Z,25.56
2018-06-11T17:00:16.452Z,25.36
2018-06-11T17:02:45.805Z,25.39
2018-06-11T17:05:15.174Z,25.69
2018-06-11T17:07:44.557Z,25.67
2018-06-11T17:10:13.941Z,25.77
2018-06-11T17:12:43.304Z,25.93
2018-06-11T17:15:12.627Z,25.69
2018-06-11T17:17:42.530Z,25.60
2018-06-11T17:20:11.969Z,25.54
2018-06-11T17:22:41.364Z,25.59
2018-06-11T17:25:10.672Z,25.29
2018-06-11T17:27:40.066Z,25.19
2018-06-11T17:30:09.474Z,25.22
2018-06-11T17:32:38.918Z,25.30
2018-06-11T17:35:08.267Z,25.14
2018-06-11T17:37:37.571Z,24.79
2018-06-11T17:40:07.219Z,24.85
2018-06-11T17:42:36.603Z,24.63
2018-06-11T17:45:05.979Z,24.92
2018-06-11T17:47:35.279Z,25.12
2018-06-11T17:50:04.673Z,24.64
2018-06-11T17:52:34.088Z,24.71
2018-06-11T17:55:03.441Z,24.41
2018-06-11T17:57:32.757Z,24.16
2018-06-11T18:00:02.110Z,24.25
2018-06-11T18:02:31.452Z,24.36
2018-06-11T18:05:00.724Z,24.46
2018-06-11T18:07:30.048Z,24.44
2018-06-11T18:09:59.422Z,24.11
2018-06-11T18:12:28.756Z,24.17
2018-06-11T18:14:58.050Z,23.84
2018-06-11T18:17:27.615Z,23.72
2018-06-11T18:19:57.130Z,23.74
2018-06-11T18:22:26.726Z,23.56
2018-06-11T18:24:56.520Z,23.65
2018-06-11T18:27:26.029Z,23.55
2018-06-11T18:29:55.643Z,23.47
2018-06-11T18:32:25.008Z,23.60
2018-06-11T18:34:54.321Z,23.37
2018-06-11T18:37:23.729Z,23.38
2018-06-11T18:39:53.185Z,23.43
2018-06-11T18:42:22.496Z,23.35
2018-06-11T18:44:51.855Z,23.11
2018-06-11T18:47:21.295Z,22.84
2018-06-11T18:49:50.629Z,22.70
2018-06-11T18:52:19.962Z,22.55
2018-06-11T18:54:49.293Z,22.74
2018-06-11T18:57:18.670Z,22.64
2018-06-11T18:59:48.068Z,22.39
2018-06-11T19:02:17.513Z,22.39
2018-06-11T19:04:47.318Z,22.04
2018-06-11T19:07:16.466Z,21.95
2018-06-11T19:09:45.948Z,21.75
2018-06-11T19:12:15.313Z,21.73
2018-06-11T19:14:44.684Z,21.71
2018-06-11T19:17:14.214Z,21.66
2018-06-11T19:19:43.482Z,21.75
2018-06-11T19:22:12.865Z,21.69
2018-06-11T19:24:42.325Z,21.42
2018-06-11T19:27:11.831Z,21.25
2018-06-11T19:29:41.265Z,21.40
2018-06-11T19:32:10.755Z,21.39
2018-06-11T19:34:40.379Z,21.19
2018-06-11T19:37:09.690Z,21.26
2018-06-11T19:39:39.069Z,21.28
2018-06-11T19:42:08.492Z,21.02
2018-06-11T19:44:37.834Z,20.98
2018-06-11T19:47:07.140Z,20.86
2018-06-11T19:49:36.473Z,20.80
2018-06-11T19:52:05.806Z,20.57
2018-06-11T19:54:35.545Z,20.55
2018-06-11T19:57:04.875Z,20.61
2018-06-11T19:59:34.207Z,20.55
2018-06-11T20:02:03.614Z,20.32
2018-06-11T20:04:33.550Z,20.09
2018-06-11T20:07:02.853Z,20.16
2018-06-11T20:09:32.357Z,20.35
2018-06-11T20:12:01.710Z,20.30
2018-06-11T20:14:31.033Z,20.35
2018-06-11T20:17:00.557Z,20.38
2018-06-11T20:19:30.739Z,20.28
2018-06-11T20:22:00.238Z,20.41
2018-06-11T20:24:29.547Z,20.26
2018-06-11T20:26:58.960Z,20.20
2018-06-11T20:29:28.268Z,20.14
2018-06-11T20:31:57.636Z,20.24
2018-06-11T20:34:26.903Z,20.35
2018-06-11T20:36:56.318Z,20.24
2018-06-11T20:39:25.908Z,20.15
2018-06-11T20:42:02.085Z,19.92
2018-06-11T20:44:32.021Z,19.95
2018-06-11T20:47:01.540Z,19.96
2018-06-11T20:49:31.090Z,19.88
2018-06-11T20:52:00.585Z,19.99
2018-06-11T20:54:30.337Z,20.12
2018-06-11T20:57:00.019Z,20.13
2018-06-11T20:59:29.822Z,20.15
2018-06-11T21:01:59.287Z,20.16
2018-06-11T21:04:28.735Z,20.23
2018-06-11T21:06:58.489Z,20.10
2018-06-11T21:09:28.140Z,19.97
2018-06-11T21:11:57.661Z,19.78
2018-06-11T21:14:27.346Z,19.83
2018-06-11T21:16:57.262Z,19.84
2018-06-11T21:19:26.853Z,19.77
2018-06-11T21:21:57.391Z,19.78
2018-06-11T21:24:27.116Z,19.70
2018-06-11T21:26:56.533Z,19.62
2018-06-11T21:29:25.930Z,19.66
2018-06-11T21:31:55.417Z,19.83
2018-06-11T21:34:24.816Z,19.80
2018-06-11T21:36:54.029Z,19.74
2018-06-11T21:39:23.439Z,19.57
2018-06-11T21:41:53.151Z,19.45
2018-06-11T21:44:22.887Z,19.48
2018-06-11T21:46:52.513Z,19.57
2018-06-11T21:49:21.971Z,19.53
2018-06-11T21:51:51.262Z,19.43
2018-06-11T21:54:20.566Z,19.27
2018-06-11T21:56:49.853Z,19.30
2018-06-11T21:59:19.479Z,19.32
2018-06-11T22:01:48.807Z,19.35
2018-06-11T22:04:18.152Z,19.14
2018-06-11T22:06:47.754Z,19.08
2018-06-11T22:09:17.074Z,18.92
2018-06-11T22:11:46.422Z,18.89
2018-06-11T22:14:15.851Z,18.81
2018-06-11T22:16:45.267Z,18.95
2018-06-11T22:19:14.639Z,19.04
2018-06-11T22:21:44.008Z,18.97
2018-06-11T22:24:14.112Z,18.92
2018-06-11T22:26:43.367Z,18.77
2018-06-11T22:29:13.207Z,18.89
2018-06-11T22:31:42.535Z,18.92
2018-06-11T22:34:11.854Z,18.90
2018-06-11T22:36:41.256Z,18.93
2018-06-11T22:39:10.762Z,18.66
2018-06-11T22:41:40.088Z,18.63
2018-06-11T22:44:09.410Z,18.92
2018-06-11T22:46:38.755Z,19.07
2018-06-11T22:49:08.093Z,18.93
2018-06-11T22:51:37.812Z,18.86
2018-06-11T22:54:07.089Z,18.91
2018-06-11T22:56:36.366Z,18.95
2018-06-11T22:59:05.743Z,18.75
2018-06-11T23:01:35.079Z,18.54
2018-06-11T23:04:04.331Z,18.74
2018-06-11T23:06:33.643Z,18.64
2018-06-11T23:09:02.966Z,18.63
2018-06-11T23:11:32.263Z,18.49
2018-06-11T23:14:01.874Z,18.48
2018-06-11T23:16:31.322Z,18.60
2018-06-11T23:19:00.639Z,18.60
2018-06-11T23:21:29.977Z,18.75
2018-06-11T23:23:59.312Z,18.76
2018-06-11T23:26:28.621Z,18.77
2018-06-11T23:28:57.923Z,18.85
2018-06-11T23:31:27.252Z,18.82
2018-06-11T23:33:56.704Z,18.71
2018-06-11T23:36:26.414Z,18.79
2018-06-11T23:38:55.716Z,18.82
2018-06-11T23:41:25.038Z,18.79
2018-06-11T23:43:54.348Z,18.75
2018-06-11T23:46:23.662Z,18.82
2018-06-11T23:48:53.303Z,18.76
2018-06-11T23:51:22.639Z,18.77
2018-06-11T23:53:51.931Z,18.84
2018-06-11T23:56:21.219Z,18.88
2018-06-11T23:58:50.851Z,18.93
